Artemis — SWZE — position and weather

sailwx.info

Track history (hours):
 
Tides and Currents Weather Stations Pressure Air Temp Water Temp Dewpoint Dewpoint Depression Visibility Wind Speed Wind Dir Waves Ship Positions

Artemis

Last reported at 2014-Jul-29 10:33 UTC. Time now 2014-Jul-29 10:50 UTC.
Position N 37°57' E 023°38'.

Length 89 m; draft 3.1 m.

Type: Passenger vessel. MMSI: 237026300.

Date/timePositionNaut miles runAvg speedWind from/ knotsBaromVisibWave heightAir tempDewpointWater temp
2014-Jul-29 10:33N 37°57' E 023°38'0 0.0
2014-Jul-29 09:34N 37°57' E 023°38'0 0.0
2014-Jul-29 08:33N 37°57' E 023°38'0 0.0
2014-Jul-29 07:33N 37°57' E 023°38'1 1.5
2014-Jul-29 06:34N 37°56' E 023°37'1514.6
2014-Jul-29 05:33N 37°45' E 023°25'5 4.9
2014-Jul-29 04:33N 37°40' E 023°25'10 9.2
2014-Jul-29 03:30N 37°30' E 023°27'0 0.0
2014-Jul-28 18:25N 37°30' E 023°27'6 5.9
2014-Jul-28 17:27N 37°36' E 023°25'1011.6
2014-Jul-28 16:33N 37°46' E 023°25'1515.0
2014-Jul-28 15:33N 37°57' E 023°38'0 0.2
2014-Jul-28 14:33N 37°57' E 023°38'1312.8
2014-Jul-28 13:33N 37°47' E 023°27'3 2.8
2014-Jul-28 12:33N 37°46' E 023°25'1515.2
2014-Jul-28 11:33N 37°56' E 023°38'0 0.4
2014-Jul-28 10:33N 37°57' E 023°38'0 0.0
2014-Jul-28 09:33N 37°57' E 023°38'0 0.0
2014-Jul-28 08:33N 37°57' E 023°38'0 0.0
2014-Jul-28 07:33N 37°57' E 023°38'0 0.0
2014-Jul-28 06:33N 37°57' E 023°38'0 0.0
2014-Jul-28 05:33N 37°57' E 023°38'0 0.0
2014-Jul-28 04:33N 37°57' E 023°38'0 0.0
2014-Jul-28 03:33N 37°57' E 023°38'0 0.0
2014-Jul-28 02:33N 37°57' E 023°38'0 0.0
2014-Jul-28 01:33N 37°57' E 023°38'0 0.0
2014-Jul-28 00:33N 37°57' E 023°38'0 0.0
2014-Jul-27 23:33N 37°57' E 023°38'0 0.0
2014-Jul-27 22:33N 37°57' E 023°38'0 0.0
2014-Jul-27 21:33N 37°57' E 023°38'0 0.0
2014-Jul-27 20:33N 37°57' E 023°38'0 0.0
2014-Jul-27 19:33N 37°57' E 023°38'0 0.0
2014-Jul-27 18:33N 37°57' E 023°38'2 2.2
2014-Jul-27 17:33N 37°55' E 023°36'1412.4
2014-Jul-27 16:27N 37°45' E 023°25'10 9.9
2014-Jul-27 15:24N 37°34' E 023°24'0 0.1
2014-Jul-27 09:29N 37°35' E 023°24'10 9.3
2014-Jul-27 08:24N 37°45' E 023°25'1315.3
2014-Jul-27 07:33N 37°55' E 023°35'3 0.4
2014-Jul-26 23:33N 37°57' E 023°38'0 0.0
2014-Jul-26 22:33N 37°57' E 023°38'0 0.0
2014-Jul-26 21:33N 37°57' E 023°38'0 0.0
2014-Jul-26 20:33N 37°57' E 023°38'0 0.0
2014-Jul-26 19:33N 37°57' E 023°38'0 0.0
2014-Jul-26 18:33N 37°57' E 023°38'10 9.8
2014-Jul-26 17:34N 37°50' E 023°30'6 5.7
2014-Jul-26 16:33N 37°46' E 023°25'1515.1
2014-Jul-26 15:34N 37°56' E 023°38'0 0.4
2014-Jul-26 14:34N 37°57' E 023°38'0 0.0
2014-Jul-26 13:33N 37°57' E 023°38'0 0.0
2014-Jul-26 12:33N 37°57' E 023°38'0 0.0
2014-Jul-26 11:34N 37°57' E 023°38'0 0.0
2014-Jul-26 10:33N 37°57' E 023°38'0 0.0
2014-Jul-26 09:34N 37°57' E 023°38'0 0.0
2014-Jul-26 08:33N 37°57' E 023°38'0 0.0
2014-Jul-26 07:33N 37°57' E 023°38'0 0.0
2014-Jul-26 06:33N 37°57' E 023°38'0 0.0
2014-Jul-26 05:34N 37°57' E 023°38'0 0.0
2014-Jul-26 04:34N 37°57' E 023°38'0 0.0
2014-Jul-26 03:33N 37°57' E 023°38'0 0.0
2014-Jul-26 02:33N 37°57' E 023°38'0 0.0
2014-Jul-26 01:33N 37°57' E 023°38'0 0.0
2014-Jul-26 00:34N 37°57' E 023°38'0 0.0
2014-Jul-25 23:33N 37°57' E 023°38'0 0.0
2014-Jul-25 22:34N 37°57' E 023°38'0 0.0
2014-Jul-25 21:34N 37°57' E 023°38'0 0.0
2014-Jul-25 20:31N 37°57' E 023°38'0 0.0
2014-Jul-25 19:34N 37°57' E 023°38'1110.5
2014-Jul-25 18:33N 37°49' E 023°29'1 1.5
2014-Jul-25 17:33N 37°48' E 023°28'1212.0
2014-Jul-25 16:33N 37°57' E 023°38'0 0.0
2014-Jul-25 15:33N 37°57' E 023°38'0 0.0
2014-Jul-25 14:33N 37°57' E 023°38'0 0.0
2014-Jul-25 13:33N 37°57' E 023°38'0 0.0
2014-Jul-25 12:33N 37°57' E 023°38'0 0.0
2014-Jul-25 11:33N 37°57' E 023°38'0 0.0
2014-Jul-25 10:33N 37°57' E 023°38'0 0.0
2014-Jul-25 09:33N 37°57' E 023°38'0 0.0
2014-Jul-25 08:33N 37°57' E 023°38'0 0.0
2014-Jul-25 07:33N 37°57' E 023°38'0 0.0
2014-Jul-25 06:33N 37°57' E 023°38'1010.0
2014-Jul-25 05:34N 37°49' E 023°30'19 1.7
2014-Jul-24 18:11N 37°30' E 023°27'6 8.7
2014-Jul-24 17:33N 37°35' E 023°25'1110.8
2014-Jul-24 16:34N 37°46' E 023°25'1514.9
2014-Jul-24 15:34N 37°57' E 023°38'0 0.2
2014-Jul-24 14:33N 37°57' E 023°38'0 0.0
2014-Jul-24 13:33N 37°57' E 023°38'0 0.0
2014-Jul-24 12:33N 37°57' E 023°38'0 0.0
2014-Jul-24 11:33N 37°57' E 023°38'0 0.0
2014-Jul-24 10:15N 37°57' E 023°38'0 0.0
2014-Jul-24 09:34N 37°57' E 023°38'0 0.0
2014-Jul-24 08:33N 37°57' E 023°38'0 0.0
2014-Jul-24 07:33N 37°57' E 023°38'0 0.0
2014-Jul-24 06:33N 37°57' E 023°38'0 0.0
2014-Jul-24 05:33N 37°57' E 023°38'0 0.0
2014-Jul-24 04:34N 37°57' E 023°38'0 0.0
2014-Jul-24 03:33N 37°57' E 023°38'0 0.0
2014-Jul-24 02:33N 37°57' E 023°38'0 0.0
2014-Jul-24 01:34N 37°57' E 023°38'0 0.0
2014-Jul-24 00:33N 37°57' E 023°38'0 0.0
2014-Jul-23 23:33N 37°57' E 023°38'0 0.0
2014-Jul-23 22:33N 37°57' E 023°38'0 0.0
2014-Jul-23 21:33N 37°57' E 023°38'0 0.0
2014-Jul-23 20:33N 37°57' E 023°38'0 0.0
2014-Jul-23 19:33N 37°57' E 023°38'0 0.0
2014-Jul-23 18:33N 37°57' E 023°38'0 0.0
2014-Jul-23 17:33N 37°57' E 023°38'0 0.0
2014-Jul-23 16:33N 37°57' E 023°38'9 9.5
2014-Jul-23 15:33N 37°50' E 023°30'8 7.5
2014-Jul-23 14:33N 37°44' E 023°25'1 1.3
2014-Jul-23 13:32N 37°45' E 023°25'1313.0
2014-Jul-23 12:34N 37°55' E 023°36'3 3.2
2014-Jul-23 11:33N 37°57' E 023°39'0 0.0
2014-Jul-23 09:33N 37°57' E 023°39'0 0.0
2014-Jul-23 08:33N 37°57' E 023°39'0 0.0
2014-Jul-23 07:34N 37°57' E 023°39'0 0.0
2014-Jul-23 06:33N 37°57' E 023°39'1212.4
2014-Jul-23 05:34N 37°48' E 023°28'18 3.5
2014-Jul-23 00:29N 37°30' E 023°27'0 0.0
2014-Jul-22 23:33N 37°30' E 023°27'0 0.0
2014-Jul-22 22:23N 37°30' E 023°27'0 0.0
2014-Jul-22 21:33N 37°30' E 023°27'0 0.0
2014-Jul-22 20:23N 37°30' E 023°27'0 0.0
2014-Jul-22 19:28N 37°30' E 023°27'1 0.9
2014-Jul-22 18:17N 37°31' E 023°26'811.1
2014-Jul-22 17:33N 37°39' E 023°25'9 8.8
2014-Jul-22 16:33N 37°47' E 023°27'1313.2
2014-Jul-22 15:33N 37°57' E 023°38'0 0.0
2014-Jul-22 14:33N 37°57' E 023°38'0 0.0
2014-Jul-22 13:33N 37°57' E 023°38'0 0.0
2014-Jul-22 12:33N 37°57' E 023°38'0 0.0
2014-Jul-22 11:33N 37°57' E 023°38'0 0.0
2014-Jul-22 10:33N 37°57' E 023°38'0 0.0
2014-Jul-22 09:33N 37°57' E 023°38'0 0.0
2014-Jul-22 08:33N 37°57' E 023°38'0 0.0
2014-Jul-22 07:33N 37°57' E 023°38'0 0.0
2014-Jul-22 06:33N 37°57' E 023°38'9 9.1
2014-Jul-22 05:33N 37°50' E 023°31'10 9.5
2014-Jul-22 04:33N 37°41' E 023°25'11 1.1
2014-Jul-21 18:11N 37°30' E 023°27'6 9.2
2014-Jul-21 17:29N 37°36' E 023°25'910.3
2014-Jul-21 16:34N 37°46' E 023°25'1515.0
2014-Jul-21 15:33N 37°57' E 023°38'0 0.3
2014-Jul-21 14:33N 37°57' E 023°38'1312.7
2014-Jul-21 13:33N 37°48' E 023°27'3 2.9
2014-Jul-21 12:34N 37°46' E 023°25'1515.1
2014-Jul-21 11:33N 37°56' E 023°38'1 0.5
2014-Jul-21 10:33N 37°57' E 023°38'0 0.0
2014-Jul-21 09:33N 37°57' E 023°38'0 0.0
2014-Jul-21 08:30N 37°57' E 023°38'0 0.0
2014-Jul-21 07:33N 37°57' E 023°38'0 0.0
2014-Jul-21 06:33N 37°57' E 023°38'3 0.2
2014-Jul-20 17:32N 37°55' E 023°36'3 0.1
2014-Jul-19 13:33N 37°57' E 023°39'0 0.0
2014-Jul-19 12:33N 37°57' E 023°39'0 0.0
2014-Jul-19 11:33N 37°57' E 023°39'0 0.0
2014-Jul-19 10:33N 37°57' E 023°39'  
Track history (hours):
 
Tides and Currents Weather Stations Pressure Air Temp Water Temp Dewpoint Dewpoint Depression Visibility Wind Speed Wind Dir Waves Ship Positions

Artemis

Last reported at 2014-Jul-29 10:33 UTC. Time now 2014-Jul-29 10:50 UTC.
Position N 37°57' E 023°38'.

Length 89 m; draft 3.1 m.

Type: Passenger vessel. MMSI: 237026300.

Date/timePositionNaut miles runAvg speedWind from/ knotsBaromVisibWave heightAir tempDewpointWater temp
2014-Jul-29 10:33N 37°57' E 023°38'0 0.0
2014-Jul-29 09:34N 37°57' E 023°38'0 0.0
2014-Jul-29 08:33N 37°57' E 023°38'0 0.0
2014-Jul-29 07:33N 37°57' E 023°38'1 1.5
2014-Jul-29 06:34N 37°56' E 023°37'1514.6
2014-Jul-29 05:33N 37°45' E 023°25'5 4.9
2014-Jul-29 04:33N 37°40' E 023°25'10 9.2
2014-Jul-29 03:30N 37°30' E 023°27'0 0.0
2014-Jul-28 18:25N 37°30' E 023°27'6 5.9
2014-Jul-28 17:27N 37°36' E 023°25'1011.6
2014-Jul-28 16:33N 37°46' E 023°25'1515.0
2014-Jul-28 15:33N 37°57' E 023°38'0 0.2
2014-Jul-28 14:33N 37°57' E 023°38'1312.8
2014-Jul-28 13:33N 37°47' E 023°27'3 2.8
2014-Jul-28 12:33N 37°46' E 023°25'1515.2
2014-Jul-28 11:33N 37°56' E 023°38'0 0.4
2014-Jul-28 10:33N 37°57' E 023°38'0 0.0
2014-Jul-28 09:33N 37°57' E 023°38'0 0.0
2014-Jul-28 08:33N 37°57' E 023°38'0 0.0
2014-Jul-28 07:33N 37°57' E 023°38'0 0.0
2014-Jul-28 06:33N 37°57' E 023°38'0 0.0
2014-Jul-28 05:33N 37°57' E 023°38'0 0.0
2014-Jul-28 04:33N 37°57' E 023°38'0 0.0
2014-Jul-28 03:33N 37°57' E 023°38'0 0.0
2014-Jul-28 02:33N 37°57' E 023°38'0 0.0
2014-Jul-28 01:33N 37°57' E 023°38'0 0.0
2014-Jul-28 00:33N 37°57' E 023°38'0 0.0
2014-Jul-27 23:33N 37°57' E 023°38'0 0.0
2014-Jul-27 22:33N 37°57' E 023°38'0 0.0
2014-Jul-27 21:33N 37°57' E 023°38'0 0.0
2014-Jul-27 20:33N 37°57' E 023°38'0 0.0
2014-Jul-27 19:33N 37°57' E 023°38'0 0.0
2014-Jul-27 18:33N 37°57' E 023°38'2 2.2
2014-Jul-27 17:33N 37°55' E 023°36'1412.4
2014-Jul-27 16:27N 37°45' E 023°25'10 9.9
2014-Jul-27 15:24N 37°34' E 023°24'0 0.1
2014-Jul-27 09:29N 37°35' E 023°24'10 9.3
2014-Jul-27 08:24N 37°45' E 023°25'1315.3
2014-Jul-27 07:33N 37°55' E 023°35'3 0.4
2014-Jul-26 23:33N 37°57' E 023°38'0 0.0
2014-Jul-26 22:33N 37°57' E 023°38'0 0.0
2014-Jul-26 21:33N 37°57' E 023°38'0 0.0
2014-Jul-26 20:33N 37°57' E 023°38'0 0.0
2014-Jul-26 19:33N 37°57' E 023°38'0 0.0
2014-Jul-26 18:33N 37°57' E 023°38'10 9.8
2014-Jul-26 17:34N 37°50' E 023°30'6 5.7
2014-Jul-26 16:33N 37°46' E 023°25'1515.1
2014-Jul-26 15:34N 37°56' E 023°38'0 0.4
2014-Jul-26 14:34N 37°57' E 023°38'0 0.0
2014-Jul-26 13:33N 37°57' E 023°38'0 0.0
2014-Jul-26 12:33N 37°57' E 023°38'0 0.0
2014-Jul-26 11:34N 37°57' E 023°38'0 0.0
2014-Jul-26 10:33N 37°57' E 023°38'0 0.0
2014-Jul-26 09:34N 37°57' E 023°38'0 0.0
2014-Jul-26 08:33N 37°57' E 023°38'0 0.0
2014-Jul-26 07:33N 37°57' E 023°38'0 0.0
2014-Jul-26 06:33N 37°57' E 023°38'0 0.0
2014-Jul-26 05:34N 37°57' E 023°38'0 0.0
2014-Jul-26 04:34N 37°57' E 023°38'0 0.0
2014-Jul-26 03:33N 37°57' E 023°38'0 0.0
2014-Jul-26 02:33N 37°57' E 023°38'0 0.0
2014-Jul-26 01:33N 37°57' E 023°38'0 0.0
2014-Jul-26 00:34N 37°57' E 023°38'0 0.0
2014-Jul-25 23:33N 37°57' E 023°38'0 0.0
2014-Jul-25 22:34N 37°57' E 023°38'0 0.0
2014-Jul-25 21:34N 37°57' E 023°38'0 0.0
2014-Jul-25 20:31N 37°57' E 023°38'0 0.0
2014-Jul-25 19:34N 37°57' E 023°38'1110.5
2014-Jul-25 18:33N 37°49' E 023°29'1 1.5
2014-Jul-25 17:33N 37°48' E 023°28'1212.0
2014-Jul-25 16:33N 37°57' E 023°38'0 0.0
2014-Jul-25 15:33N 37°57' E 023°38'0 0.0
2014-Jul-25 14:33N 37°57' E 023°38'0 0.0
2014-Jul-25 13:33N 37°57' E 023°38'0 0.0
2014-Jul-25 12:33N 37°57' E 023°38'0 0.0
2014-Jul-25 11:33N 37°57' E 023°38'0 0.0
2014-Jul-25 10:33N 37°57' E 023°38'0 0.0
2014-Jul-25 09:33N 37°57' E 023°38'0 0.0
2014-Jul-25 08:33N 37°57' E 023°38'0 0.0
2014-Jul-25 07:33N 37°57' E 023°38'0 0.0
2014-Jul-25 06:33N 37°57' E 023°38'1010.0
2014-Jul-25 05:34N 37°49' E 023°30'19 1.7
2014-Jul-24 18:11N 37°30' E 023°27'6 8.7
2014-Jul-24 17:33N 37°35' E 023°25'1110.8
2014-Jul-24 16:34N 37°46' E 023°25'1514.9
2014-Jul-24 15:34N 37°57' E 023°38'0 0.2
2014-Jul-24 14:33N 37°57' E 023°38'0 0.0
2014-Jul-24 13:33N 37°57' E 023°38'0 0.0
2014-Jul-24 12:33N 37°57' E 023°38'0 0.0
2014-Jul-24 11:33N 37°57' E 023°38'0 0.0
2014-Jul-24 10:15N 37°57' E 023°38'0 0.0
2014-Jul-24 09:34N 37°57' E 023°38'0 0.0
2014-Jul-24 08:33N 37°57' E 023°38'0 0.0
2014-Jul-24 07:33N 37°57' E 023°38'0 0.0
2014-Jul-24 06:33N 37°57' E 023°38'0 0.0
2014-Jul-24 05:33N 37°57' E 023°38'0 0.0
2014-Jul-24 04:34N 37°57' E 023°38'0 0.0
2014-Jul-24 03:33N 37°57' E 023°38'0 0.0
2014-Jul-24 02:33N 37°57' E 023°38'0 0.0
2014-Jul-24 01:34N 37°57' E 023°38'0 0.0
2014-Jul-24 00:33N 37°57' E 023°38'0 0.0
2014-Jul-23 23:33N 37°57' E 023°38'0 0.0
2014-Jul-23 22:33N 37°57' E 023°38'0 0.0
2014-Jul-23 21:33N 37°57' E 023°38'0 0.0
2014-Jul-23 20:33N 37°57' E 023°38'0 0.0
2014-Jul-23 19:33N 37°57' E 023°38'0 0.0
2014-Jul-23 18:33N 37°57' E 023°38'0 0.0
2014-Jul-23 17:33N 37°57' E 023°38'0 0.0
2014-Jul-23 16:33N 37°57' E 023°38'9 9.5
2014-Jul-23 15:33N 37°50' E 023°30'8 7.5
2014-Jul-23 14:33N 37°44' E 023°25'1 1.3
2014-Jul-23 13:32N 37°45' E 023°25'1313.0
2014-Jul-23 12:34N 37°55' E 023°36'3 3.2
2014-Jul-23 11:33N 37°57' E 023°39'0 0.0
2014-Jul-23 09:33N 37°57' E 023°39'0 0.0
2014-Jul-23 08:33N 37°57' E 023°39'0 0.0
2014-Jul-23 07:34N 37°57' E 023°39'0 0.0
2014-Jul-23 06:33N 37°57' E 023°39'1212.4
2014-Jul-23 05:34N 37°48' E 023°28'18 3.5
2014-Jul-23 00:29N 37°30' E 023°27'0 0.0
2014-Jul-22 23:33N 37°30' E 023°27'0 0.0
2014-Jul-22 22:23N 37°30' E 023°27'0 0.0
2014-Jul-22 21:33N 37°30' E 023°27'0 0.0
2014-Jul-22 20:23N 37°30' E 023°27'0 0.0
2014-Jul-22 19:28N 37°30' E 023°27'1 0.9
2014-Jul-22 18:17N 37°31' E 023°26'811.1
2014-Jul-22 17:33N 37°39' E 023°25'9 8.8
2014-Jul-22 16:33N 37°47' E 023°27'1313.2
2014-Jul-22 15:33N 37°57' E 023°38'0 0.0
2014-Jul-22 14:33N 37°57' E 023°38'0 0.0
2014-Jul-22 13:33N 37°57' E 023°38'0 0.0
2014-Jul-22 12:33N 37°57' E 023°38'0 0.0
2014-Jul-22 11:33N 37°57' E 023°38'0 0.0
2014-Jul-22 10:33N 37°57' E 023°38'0 0.0
2014-Jul-22 09:33N 37°57' E 023°38'0 0.0
2014-Jul-22 08:33N 37°57' E 023°38'0 0.0
2014-Jul-22 07:33N 37°57' E 023°38'0 0.0
2014-Jul-22 06:33N 37°57' E 023°38'9 9.1
2014-Jul-22 05:33N 37°50' E 023°31'10 9.5
2014-Jul-22 04:33N 37°41' E 023°25'11 1.1
2014-Jul-21 18:11N 37°30' E 023°27'6 9.2
2014-Jul-21 17:29N 37°36' E 023°25'910.3
2014-Jul-21 16:34N 37°46' E 023°25'1515.0
2014-Jul-21 15:33N 37°57' E 023°38'0 0.3
2014-Jul-21 14:33N 37°57' E 023°38'1312.7
2014-Jul-21 13:33N 37°48' E 023°27'3 2.9
2014-Jul-21 12:34N 37°46' E 023°25'1515.1
2014-Jul-21 11:33N 37°56' E 023°38'1 0.5
2014-Jul-21 10:33N 37°57' E 023°38'0 0.0
2014-Jul-21 09:33N 37°57' E 023°38'0 0.0
2014-Jul-21 08:30N 37°57' E 023°38'0 0.0
2014-Jul-21 07:33N 37°57' E 023°38'0 0.0
2014-Jul-21 06:33N 37°57' E 023°38'3 0.2
2014-Jul-20 17:32N 37°55' E 023°36'3 0.1
2014-Jul-19 13:33N 37°57' E 023°39'0 0.0
2014-Jul-19 12:33N 37°57' E 023°39'0 0.0
2014-Jul-19 11:33N 37°57' E 023°39'0 0.0
2014-Jul-19 10:33N 37°57' E 023°39'  

Dump ship's entire track history